createdAt,value
2018-09-12T00:00:11.449Z,25.30
2018-09-12T00:02:39.174Z,25.30
2018-09-12T00:05:06.807Z,25.20
2018-09-12T00:07:34.509Z,25.20
2018-09-12T00:10:02.149Z,25.20
2018-09-12T00:12:29.843Z,25.30
2018-09-12T00:14:57.553Z,25.20
2018-09-12T00:17:25.269Z,25.20
2018-09-12T00:19:52.947Z,25.20
2018-09-12T00:22:20.733Z,25.20
2018-09-12T00:24:48.374Z,25.20
2018-09-12T00:27:15.977Z,25.20
2018-09-12T00:29:43.661Z,25.20
2018-09-12T00:32:11.305Z,25.20
2018-09-12T00:34:38.930Z,25.20
2018-09-12T00:37:06.930Z,25.20
2018-09-12T00:39:34.574Z,25.20
2018-09-12T00:42:02.194Z,25.20
2018-09-12T00:44:29.808Z,25.20
2018-09-12T00:46:57.492Z,25.20
2018-09-12T00:49:25.202Z,25.20
2018-09-12T00:51:52.802Z,25.20
2018-09-12T00:54:20.462Z,25.10
2018-09-12T00:56:48.195Z,25.20
2018-09-12T00:59:15.844Z,25.20
2018-09-12T01:01:44.648Z,25.20
2018-09-12T01:04:12.280Z,25.10
2018-09-12T01:06:39.895Z,25.10
2018-09-12T01:09:07.568Z,25.20
2018-09-12T01:11:35.230Z,25.10
2018-09-12T01:14:02.893Z,25.20
2018-09-12T01:16:33.091Z,25.20
2018-09-12T01:19:00.759Z,25.10
2018-09-12T01:21:28.543Z,25.10
2018-09-12T01:23:56.377Z,25.20
2018-09-12T01:26:24.102Z,25.20
2018-09-12T01:28:51.781Z,25.20
2018-09-12T01:31:19.422Z,25.10
2018-09-12T01:33:47.044Z,25.20
2018-09-12T01:36:14.691Z,25.10
2018-09-12T01:38:42.375Z,25.10
2018-09-12T01:41:10.163Z,25.10
2018-09-12T01:43:37.814Z,25.10
2018-09-12T01:46:05.461Z,25.10
2018-09-12T01:48:33.110Z,25.10
2018-09-12T01:51:00.786Z,25.10
2018-09-12T01:53:28.424Z,25.10
2018-09-12T01:55:56.114Z,25.10
2018-09-12T01:58:23.796Z,25.10
2018-09-12T02:00:51.941Z,25.10
2018-09-12T02:03:19.614Z,25.10
2018-09-12T02:05:47.258Z,25.10
2018-09-12T02:08:14.942Z,25.10
2018-09-12T02:10:42.591Z,25.00
2018-09-12T02:13:10.200Z,25.00
2018-09-12T02:15:37.801Z,25.10
2018-09-12T02:18:05.500Z,25.10
2018-09-12T02:20:33.167Z,25.00
2018-09-12T02:23:00.804Z,25.10
2018-09-12T02:25:28.546Z,25.10
2018-09-12T02:27:56.221Z,25.10
2018-09-12T02:30:23.892Z,25.00
2018-09-12T02:32:51.610Z,25.00
2018-09-12T02:35:19.293Z,25.10
2018-09-12T02:37:47.000Z,25.10
2018-09-12T02:40:14.655Z,25.10
2018-09-12T02:42:42.274Z,25.10
2018-09-12T02:45:09.970Z,25.10
2018-09-12T02:47:38.760Z,25.00
2018-09-12T02:50:07.578Z,25.10
2018-09-12T02:52:35.412Z,25.10
2018-09-12T02:55:03.136Z,25.10
2018-09-12T02:57:30.770Z,25.10
2018-09-12T02:59:58.541Z,25.10
2018-09-12T03:02:26.270Z,25.10
2018-09-12T03:04:53.892Z,25.10
2018-09-12T03:07:21.671Z,25.00
2018-09-12T03:09:49.348Z,25.00
2018-09-12T03:12:17.090Z,25.00
2018-09-12T03:14:44.708Z,25.10
2018-09-12T03:17:13.305Z,25.10
2018-09-12T03:19:40.959Z,25.00
2018-09-12T03:22:08.733Z,25.10
2018-09-12T03:24:36.441Z,25.00
2018-09-12T03:27:04.370Z,25.00
2018-09-12T03:29:32.077Z,25.00
2018-09-12T03:32:00.125Z,25.00
2018-09-12T03:34:28.007Z,25.10
2018-09-12T03:36:55.732Z,25.00
2018-09-12T03:39:23.393Z,25.00
2018-09-12T03:41:51.198Z,25.00
2018-09-12T03:44:18.868Z,25.00
2018-09-12T03:46:46.599Z,25.00
2018-09-12T03:49:14.589Z,25.00
2018-09-12T03:51:43.337Z,25.00
2018-09-12T03:54:17.403Z,25.00
2018-09-12T03:56:45.117Z,25.00
2018-09-12T03:59:12.759Z,25.00
2018-09-12T04:01:40.477Z,25.00
2018-09-12T04:04:08.161Z,25.00
2018-09-12T04:06:35.889Z,25.00
2018-09-12T04:09:04.187Z,25.00
2018-09-12T04:11:31.835Z,25.00
2018-09-12T04:13:59.495Z,25.00
2018-09-12T04:16:27.103Z,25.00
2018-09-12T04:18:54.781Z,25.00
2018-09-12T04:21:22.417Z,25.00
2018-09-12T04:23:50.073Z,25.00
2018-09-12T04:26:17.699Z,25.00
2018-09-12T04:28:45.488Z,25.00
2018-09-12T04:31:13.259Z,25.00
2018-09-12T04:33:41.015Z,25.00
2018-09-12T04:36:08.674Z,25.00
2018-09-12T04:38:36.499Z,25.00
2018-09-12T04:41:04.261Z,25.00
2018-09-12T04:43:31.898Z,25.00
2018-09-12T04:45:59.510Z,25.00
2018-09-12T04:48:27.206Z,25.00
2018-09-12T04:50:55.067Z,25.00
2018-09-12T04:53:22.715Z,25.00
2018-09-12T04:55:50.446Z,25.00
2018-09-12T04:58:18.263Z,25.00
2018-09-12T05:00:46.124Z,25.00
2018-09-12T05:03:13.839Z,25.00
2018-09-12T05:05:41.621Z,25.00
2018-09-12T05:08:09.289Z,24.90
2018-09-12T05:10:36.971Z,25.00
2018-09-12T05:13:04.705Z,24.90
2018-09-12T05:15:32.408Z,24.90
2018-09-12T05:18:00.073Z,25.00
2018-09-12T05:20:27.779Z,24.90
2018-09-12T05:22:55.456Z,25.00
2018-09-12T05:25:23.163Z,24.90
2018-09-12T05:27:50.919Z,24.90
2018-09-12T05:30:18.572Z,24.90
2018-09-12T05:32:46.213Z,24.90
2018-09-12T05:35:13.977Z,24.90
2018-09-12T05:37:41.600Z,24.90
2018-09-12T05:40:09.457Z,24.90
2018-09-12T05:42:37.190Z,24.90
2018-09-12T05:45:04.872Z,25.00
2018-09-12T05:47:32.515Z,24.90
2018-09-12T05:50:00.202Z,25.00
2018-09-12T05:52:27.943Z,25.00
2018-09-12T05:54:55.620Z,25.00
2018-09-12T05:57:23.258Z,25.00
2018-09-12T05:59:50.866Z,25.00
2018-09-12T06:02:18.694Z,25.00
2018-09-12T06:04:46.340Z,25.00
2018-09-12T06:07:14.218Z,25.00
2018-09-12T06:09:41.782Z,25.00
2018-09-12T06:12:09.477Z,25.00
2018-09-12T06:14:37.118Z,25.00
2018-09-12T06:17:04.864Z,25.00
2018-09-12T06:19:32.680Z,24.90
2018-09-12T06:22:00.340Z,24.90
2018-09-12T06:24:28.080Z,25.00
2018-09-12T06:26:55.800Z,25.00
2018-09-12T06:29:23.454Z,25.00
2018-09-12T06:31:52.131Z,25.00
2018-09-12T06:34:19.896Z,25.00
2018-09-12T06:36:47.598Z,25.00
2018-09-12T06:39:15.474Z,25.00
2018-09-12T06:41:43.185Z,25.00
2018-09-12T06:44:10.814Z,25.00
2018-09-12T06:46:38.570Z,25.00
2018-09-12T06:49:06.812Z,25.00
2018-09-12T06:51:34.499Z,25.00
2018-09-12T06:54:02.178Z,25.00
2018-09-12T06:56:29.815Z,25.00
2018-09-12T06:58:57.460Z,25.00
2018-09-12T07:01:25.099Z,25.00
2018-09-12T07:03:52.968Z,25.00
2018-09-12T07:06:20.652Z,25.00
2018-09-12T07:08:48.329Z,25.00
2018-09-12T07:11:15.941Z,25.00
2018-09-12T07:13:43.628Z,25.00
2018-09-12T07:16:11.268Z,25.00
2018-09-12T07:18:39.175Z,25.00
2018-09-12T07:21:06.801Z,25.00
2018-09-12T07:23:34.460Z,25.00
2018-09-12T07:26:02.133Z,25.00
2018-09-12T07:28:29.832Z,25.00
2018-09-12T07:30:57.501Z,25.00
2018-09-12T07:33:25.139Z,25.00
2018-09-12T07:35:52.801Z,25.00
2018-09-12T07:38:20.446Z,25.00
2018-09-12T07:40:48.143Z,25.00
2018-09-12T07:43:15.857Z,25.00
2018-09-12T07:45:43.529Z,25.00
2018-09-12T07:48:11.226Z,25.00
2018-09-12T07:50:38.987Z,25.00
2018-09-12T07:53:06.696Z,25.10
2018-09-12T07:55:34.341Z,25.10
2018-09-12T07:58:01.968Z,25.10
2018-09-12T08:00:29.658Z,25.10
2018-09-12T08:02:57.269Z,25.10
2018-09-12T08:05:24.949Z,25.10
2018-09-12T08:07:52.664Z,25.10
2018-09-12T08:10:20.308Z,25.10
2018-09-12T08:12:47.981Z,25.10
2018-09-12T08:15:15.701Z,25.10
2018-09-12T08:17:43.319Z,25.10
2018-09-12T08:20:11.035Z,25.20
2018-09-12T08:22:38.682Z,25.10
2018-09-12T08:25:06.434Z,25.10
2018-09-12T08:27:34.105Z,25.20
2018-09-12T08:30:01.731Z,25.20
2018-09-12T08:32:29.406Z,25.20
2018-09-12T08:34:57.120Z,25.20
2018-09-12T08:37:24.862Z,25.20
2018-09-12T08:39:52.463Z,25.20
2018-09-12T08:42:20.300Z,25.20
2018-09-12T08:44:47.860Z,25.20
2018-09-12T08:47:15.495Z,25.20
2018-09-12T08:49:43.146Z,25.20
2018-09-12T08:52:10.785Z,25.30
2018-09-12T08:54:38.458Z,25.20
2018-09-12T08:57:06.118Z,25.20
2018-09-12T08:59:33.716Z,25.30
2018-09-12T09:02:01.362Z,25.20
2018-09-12T09:04:28.970Z,25.30
2018-09-12T09:06:56.645Z,25.20
2018-09-12T09:09:24.365Z,25.30
2018-09-12T09:11:52.072Z,25.30
2018-09-12T09:14:19.748Z,25.30
2018-09-12T09:16:47.398Z,25.30
2018-09-12T09:19:15.175Z,25.30
2018-09-12T09:21:43.359Z,25.30
2018-09-12T09:24:11.123Z,25.30
2018-09-12T09:26:38.840Z,25.30
2018-09-12T09:29:06.469Z,25.30
2018-09-12T09:31:34.104Z,25.30
2018-09-12T09:34:01.896Z,25.30
2018-09-12T09:36:29.708Z,25.30
2018-09-12T09:38:57.338Z,25.30
2018-09-12T09:41:24.997Z,25.30
2018-09-12T09:43:52.653Z,25.30
2018-09-12T09:46:20.328Z,25.30
2018-09-12T09:48:48.149Z,25.40
2018-09-12T09:51:15.829Z,25.40
2018-09-12T09:53:43.597Z,25.40
2018-09-12T09:56:11.325Z,25.40
2018-09-12T09:58:39.166Z,25.40
2018-09-12T10:01:12.242Z,25.40
2018-09-12T10:03:45.445Z,25.40
2018-09-12T10:06:19.945Z,25.40
2018-09-12T10:08:53.324Z,25.40
2018-09-12T10:11:21.382Z,25.30
2018-09-12T10:13:49.364Z,25.40
2018-09-12T10:16:17.048Z,25.40
2018-09-12T10:18:44.769Z,25.40
2018-09-12T10:21:12.416Z,25.40
2018-09-12T10:23:40.159Z,25.40
2018-09-12T10:26:07.842Z,25.40
2018-09-12T10:28:35.510Z,25.40
2018-09-12T10:31:03.141Z,25.30
2018-09-12T10:33:30.802Z,25.40
2018-09-12T10:35:58.438Z,25.30
2018-09-12T10:38:26.065Z,25.40
2018-09-12T10:40:53.837Z,25.40
2018-09-12T10:43:21.987Z,25.40
2018-09-12T10:45:49.601Z,25.40
2018-09-12T10:48:17.246Z,25.40
2018-09-12T10:50:44.882Z,25.40
2018-09-12T10:53:12.537Z,25.40
2018-09-12T10:55:40.209Z,25.40
2018-09-12T10:58:07.914Z,25.40
2018-09-12T11:00:35.733Z,25.40
2018-09-12T11:03:03.395Z,25.30
2018-09-12T11:05:31.090Z,25.40
2018-09-12T11:07:58.787Z,25.40
2018-09-12T11:10:26.496Z,25.40
2018-09-12T11:12:54.182Z,25.30
2018-09-12T11:15:22.025Z,25.40
2018-09-12T11:17:49.759Z,25.40
2018-09-12T11:20:17.456Z,25.40
2018-09-12T11:22:45.210Z,25.40
2018-09-12T11:25:12.851Z,25.40
2018-09-12T11:27:40.523Z,25.40
2018-09-12T11:30:08.233Z,25.40
2018-09-12T11:32:35.985Z,25.40
2018-09-12T11:35:03.684Z,25.40
2018-09-12T11:37:31.448Z,25.40
2018-09-12T11:39:59.124Z,25.40
2018-09-12T11:42:26.899Z,25.40
2018-09-12T11:44:54.696Z,25.40
2018-09-12T11:47:22.859Z,25.40
2018-09-12T11:49:50.510Z,25.40
2018-09-12T11:52:18.192Z,25.40
2018-09-12T11:54:45.860Z,25.40
2018-09-12T11:57:13.553Z,25.40
2018-09-12T11:59:41.307Z,25.40
2018-09-12T12:02:09.063Z,25.40
2018-09-12T12:04:36.665Z,25.40
2018-09-12T12:07:04.495Z,25.40
2018-09-12T12:09:32.154Z,25.40
2018-09-12T12:11:59.803Z,25.40
2018-09-12T12:14:27.509Z,25.40
2018-09-12T12:16:55.149Z,25.40
2018-09-12T12:19:22.769Z,25.40
2018-09-12T12:21:50.469Z,25.40
2018-09-12T12:24:18.159Z,25.40
2018-09-12T12:26:45.797Z,25.40
2018-09-12T12:29:13.475Z,25.40
2018-09-12T12:31:41.189Z,25.40
2018-09-12T12:34:08.869Z,25.50
2018-09-12T12:36:36.585Z,25.40
2018-09-12T12:39:06.097Z,25.50
2018-09-12T12:41:33.739Z,25.40
2018-09-12T12:44:01.401Z,25.40
2018-09-12T12:46:29.109Z,25.40
2018-09-12T12:48:56.745Z,25.40
2018-09-12T12:51:24.397Z,25.40
2018-09-12T12:53:52.110Z,25.40
2018-09-12T12:56:19.825Z,25.40
2018-09-12T12:58:47.485Z,25.40
2018-09-12T13:01:15.267Z,25.40
2018-09-12T13:03:42.905Z,25.40
2018-09-12T13:06:10.665Z,25.40
2018-09-12T13:08:38.334Z,25.40
2018-09-12T13:11:05.991Z,25.50
2018-09-12T13:13:33.777Z,25.50
2018-09-12T13:16:01.444Z,25.50
2018-09-12T13:18:29.095Z,25.50
2018-09-12T13:20:56.855Z,25.50
2018-09-12T13:23:24.538Z,25.40
2018-09-12T13:25:52.280Z,25.40
2018-09-12T13:28:19.984Z,25.40
2018-09-12T13:30:47.683Z,25.40
2018-09-12T13:33:15.488Z,25.40
2018-09-12T13:35:43.195Z,25.50
2018-09-12T13:38:10.810Z,25.40
2018-09-12T13:40:38.605Z,25.40
2018-09-12T13:43:06.303Z,25.50
2018-09-12T13:45:33.957Z,25.50
2018-09-12T13:48:01.630Z,25.50
2018-09-12T13:50:29.295Z,25.50
2018-09-12T13:52:56.920Z,25.50
2018-09-12T13:55:24.592Z,25.50
2018-09-12T13:57:52.236Z,25.50
2018-09-12T14:00:19.911Z,25.50
2018-09-12T14:02:47.605Z,25.50
2018-09-12T14:05:15.468Z,25.50
2018-09-12T14:07:43.113Z,25.50
2018-09-12T14:10:10.891Z,25.50
2018-09-12T14:12:38.551Z,25.60
2018-09-12T14:15:06.205Z,25.60
2018-09-12T14:17:33.931Z,25.60
2018-09-12T14:20:01.710Z,25.60
2018-09-12T14:22:29.430Z,25.60
2018-09-12T14:24:57.143Z,25.60
2018-09-12T14:27:24.779Z,25.60
2018-09-12T14:29:52.521Z,25.60
2018-09-12T14:32:20.290Z,25.60
2018-09-12T14:34:47.919Z,25.60
2018-09-12T14:37:15.555Z,25.60
2018-09-12T14:39:43.261Z,25.60
2018-09-12T14:42:10.979Z,25.60
2018-09-12T14:44:38.638Z,25.60
2018-09-12T14:47:06.288Z,25.60
2018-09-12T14:49:33.996Z,25.60
2018-09-12T14:52:01.683Z,25.70
2018-09-12T14:54:29.421Z,25.60
2018-09-12T14:56:57.073Z,25.70
2018-09-12T14:59:24.705Z,25.70
2018-09-12T15:01:52.507Z,25.70
2018-09-12T15:04:20.187Z,25.70
2018-09-12T15:06:47.862Z,25.70
2018-09-12T15:09:15.513Z,25.70
2018-09-12T15:11:43.177Z,25.70
2018-09-12T15:14:11.190Z,25.70
2018-09-12T15:16:38.980Z,25.70
2018-09-12T15:19:06.650Z,25.70
2018-09-12T15:21:34.349Z,25.70
2018-09-12T15:24:02.021Z,25.70
2018-09-12T15:26:29.656Z,25.70
2018-09-12T15:28:57.347Z,25.70
2018-09-12T15:31:25.048Z,25.70
2018-09-12T15:33:52.753Z,25.70
2018-09-12T15:36:20.445Z,25.70
2018-09-12T15:38:48.121Z,25.70
2018-09-12T15:41:15.827Z,25.70
2018-09-12T15:43:43.540Z,25.70
2018-09-12T15:46:11.209Z,25.70
2018-09-12T15:48:39.089Z,25.70
2018-09-12T15:51:06.780Z,25.80
2018-09-12T15:53:34.399Z,25.80
2018-09-12T15:56:02.201Z,25.70
2018-09-12T15:58:29.887Z,25.70
2018-09-12T16:00:57.640Z,25.70
2018-09-12T16:03:25.299Z,25.70
2018-09-12T16:05:53.011Z,25.70
2018-09-12T16:08:20.656Z,25.60
2018-09-12T16:10:48.328Z,25.60
2018-09-12T16:13:16.067Z,25.60
2018-09-12T16:15:44.014Z,25.60
2018-09-12T16:18:11.682Z,25.60
2018-09-12T16:20:39.377Z,25.60
2018-09-12T16:23:07.046Z,25.60
2018-09-12T16:25:34.725Z,25.60
2018-09-12T16:28:02.369Z,25.70
2018-09-12T16:30:30.034Z,25.70
2018-09-12T16:32:57.815Z,25.80
2018-09-12T16:35:25.431Z,25.80
2018-09-12T16:37:53.177Z,25.80
2018-09-12T16:40:21.025Z,25.80
2018-09-12T16:42:48.829Z,25.80
2018-09-12T16:45:17.318Z,25.90
2018-09-12T16:47:45.048Z,25.90
2018-09-12T16:50:12.986Z,25.90
2018-09-12T16:52:40.773Z,25.90
2018-09-12T16:55:08.556Z,25.90
2018-09-12T16:57:36.263Z,25.90
2018-09-12T17:00:03.913Z,25.80
2018-09-12T17:02:31.662Z,25.80
2018-09-12T17:04:59.554Z,25.80
2018-09-12T17:07:27.358Z,25.80
2018-09-12T17:09:55.039Z,25.80
2018-09-12T17:12:22.690Z,25.80
2018-09-12T17:14:50.304Z,25.80
2018-09-12T17:17:18.125Z,25.80
2018-09-12T17:19:45.800Z,25.70
2018-09-12T17:22:13.486Z,25.70
2018-09-12T17:24:41.136Z,25.70
2018-09-12T17:27:08.933Z,25.70
2018-09-12T17:29:36.992Z,25.70
2018-09-12T17:32:04.772Z,25.70
2018-09-12T17:34:32.486Z,25.70
2018-09-12T17:37:01.118Z,25.70
2018-09-12T17:39:28.768Z,25.70
2018-09-12T17:41:56.572Z,25.70
2018-09-12T17:44:24.244Z,25.70
2018-09-12T17:46:52.019Z,25.70
2018-09-12T17:49:19.670Z,25.70
2018-09-12T17:51:47.404Z,25.70
2018-09-12T17:54:15.166Z,25.60
2018-09-12T17:56:42.891Z,25.60
2018-09-12T17:59:10.600Z,25.60
2018-09-12T18:01:38.262Z,25.60
2018-09-12T18:04:06.070Z,25.60
2018-09-12T18:06:34.147Z,25.70
2018-09-12T18:09:01.942Z,25.70
2018-09-12T18:11:29.703Z,25.70
2018-09-12T18:13:57.443Z,25.70
2018-09-12T18:16:25.168Z,25.70
2018-09-12T18:18:53.008Z,25.70
2018-09-12T18:21:20.683Z,25.70
2018-09-12T18:23:49.184Z,25.70
2018-09-12T18:26:16.932Z,25.70
2018-09-12T18:28:45.326Z,25.70
2018-09-12T18:31:14.554Z,25.70
2018-09-12T18:33:42.235Z,25.70
2018-09-12T18:36:09.973Z,25.70
2018-09-12T18:38:37.608Z,25.70
2018-09-12T18:41:05.259Z,25.70
2018-09-12T18:43:32.907Z,25.70
2018-09-12T18:46:00.554Z,25.70
2018-09-12T18:48:28.220Z,25.70
2018-09-12T18:50:55.980Z,25.70
2018-09-12T18:53:27.512Z,25.70
2018-09-12T18:55:55.253Z,25.70
2018-09-12T18:58:23.202Z,25.70
2018-09-12T19:00:50.887Z,25.70
2018-09-12T19:03:19.306Z,25.70
2018-09-12T19:05:47.038Z,25.70
2018-09-12T19:08:14.916Z,25.70
2018-09-12T19:10:42.673Z,25.70
2018-09-12T19:13:10.454Z,25.60
2018-09-12T19:15:38.148Z,25.60
2018-09-12T19:18:05.887Z,25.60
2018-09-12T19:20:33.642Z,25.60
2018-09-12T19:23:01.489Z,25.60
2018-09-12T19:25:29.292Z,25.60
2018-09-12T19:27:56.988Z,25.60
2018-09-12T19:30:24.688Z,25.60
2018-09-12T19:32:52.402Z,25.60
2018-09-12T19:35:20.125Z,25.60
2018-09-12T19:37:47.784Z,25.50
2018-09-12T19:40:15.490Z,25.50
2018-09-12T19:42:43.206Z,25.50
2018-09-12T19:45:11.473Z,25.50
2018-09-12T19:47:39.182Z,25.50
2018-09-12T19:50:06.860Z,25.50
2018-09-12T19:52:34.782Z,25.50
2018-09-12T19:55:02.472Z,25.60
2018-09-12T19:57:30.159Z,25.50
2018-09-12T19:59:57.880Z,25.50
2018-09-12T20:02:28.384Z,25.50
2018-09-12T20:04:56.582Z,25.50
2018-09-12T20:07:24.350Z,25.50
2018-09-12T20:09:52.291Z,25.40
2018-09-12T20:12:20.966Z,25.50
2018-09-12T20:14:49.079Z,25.40
2018-09-12T20:17:16.692Z,25.40
2018-09-12T20:19:44.496Z,25.40
2018-09-12T20:22:12.210Z,25.40
2018-09-12T20:24:39.997Z,25.40
2018-09-12T20:27:08.020Z,25.40
2018-09-12T20:29:35.690Z,25.40
2018-09-12T20:32:04.346Z,25.40
2018-09-12T20:34:32.099Z,25.40
2018-09-12T20:36:59.787Z,25.50
2018-09-12T20:39:27.518Z,25.50
2018-09-12T20:41:55.403Z,25.50
2018-09-12T20:44:23.969Z,25.50
2018-09-12T20:46:51.657Z,25.50
2018-09-12T20:49:19.350Z,25.50
2018-09-12T20:51:47.318Z,25.50
2018-09-12T20:54:16.550Z,25.50
2018-09-12T20:56:45.296Z,25.50
2018-09-12T20:59:13.070Z,25.50
2018-09-12T21:01:40.742Z,25.40
2018-09-12T21:04:08.398Z,25.40
2018-09-12T21:06:36.164Z,25.40
2018-09-12T21:09:06.105Z,25.40
2018-09-12T21:11:33.745Z,25.40
2018-09-12T21:14:01.523Z,25.40
2018-09-12T21:16:29.170Z,25.40
2018-09-12T21:18:56.993Z,25.40
2018-09-12T21:21:24.659Z,25.40
2018-09-12T21:23:52.344Z,25.40
2018-09-12T21:26:20.136Z,25.30
2018-09-12T21:28:47.903Z,25.50
2018-09-12T21:31:15.557Z,25.30
2018-09-12T21:33:43.332Z,25.30
2018-09-12T21:36:11.037Z,25.30
2018-09-12T21:38:38.725Z,25.30
2018-09-12T21:41:06.467Z,25.30
2018-09-12T21:43:34.096Z,25.30
2018-09-12T21:46:02.362Z,25.30
2018-09-12T21:48:30.039Z,25.30
2018-09-12T21:50:57.717Z,25.30
2018-09-12T21:53:25.421Z,25.30
2018-09-12T21:55:53.108Z,25.30
2018-09-12T21:58:21.801Z,25.30
2018-09-12T22:00:49.565Z,25.30
2018-09-12T22:03:17.232Z,25.30
2018-09-12T22:05:44.908Z,25.30
2018-09-12T22:08:12.603Z,25.20
2018-09-12T22:10:40.237Z,25.30
2018-09-12T22:13:07.905Z,25.20
2018-09-12T22:15:35.552Z,25.20
2018-09-12T22:18:03.182Z,25.20
2018-09-12T22:20:30.855Z,25.30
2018-09-12T22:22:58.728Z,25.30
2018-09-12T22:25:26.389Z,25.30
2018-09-12T22:27:54.027Z,25.20
2018-09-12T22:30:21.681Z,25.20
2018-09-12T22:32:49.376Z,25.20
2018-09-12T22:35:17.028Z,25.20
2018-09-12T22:37:44.704Z,25.10
2018-09-12T22:40:12.427Z,25.10
2018-09-12T22:42:40.179Z,25.10
2018-09-12T22:45:07.954Z,25.20
2018-09-12T22:47:36.073Z,25.10
2018-09-12T22:50:04.063Z,25.20
2018-09-12T22:52:31.723Z,25.10
2018-09-12T22:54:59.361Z,25.20
2018-09-12T22:57:26.989Z,25.20
2018-09-12T22:59:54.681Z,25.20
2018-09-12T23:02:22.395Z,25.10
2018-09-12T23:04:50.105Z,25.10
2018-09-12T23:07:17.733Z,25.10
2018-09-12T23:09:45.409Z,25.10
2018-09-12T23:12:13.097Z,25.10
2018-09-12T23:14:41.013Z,25.10
2018-09-12T23:17:08.604Z,25.10
2018-09-12T23:19:37.115Z,25.10
2018-09-12T23:22:04.777Z,25.10
2018-09-12T23:24:32.447Z,25.10
2018-09-12T23:27:00.127Z,25.10
2018-09-12T23:29:27.817Z,25.10
2018-09-12T23:31:55.475Z,25.00
2018-09-12T23:34:23.107Z,25.10
2018-09-12T23:36:50.792Z,25.10
2018-09-12T23:39:18.437Z,25.10
2018-09-12T23:41:46.169Z,25.10
2018-09-12T23:44:13.913Z,25.00
2018-09-12T23:46:41.630Z,25.10
2018-09-12T23:49:09.345Z,25.00
2018-09-12T23:51:37.226Z,25.00
2018-09-12T23:54:04.872Z,25.10
2018-09-12T23:56:32.643Z,25.00
2018-09-12T23:59:00.283Z,24.80
